Nederlandse vliegveldverwachtingen (TAF)

Luchtvaartmeteorologische informatie voor operationeel gebruik en vluchtvoorbereiding is beschikbaar op www.luchtvaartmeteo.nl.

ZCZC
FT251100 EHEH     EINDHOVEN/EINDHOVEN   NLD   22 m.
TAF EHEH 251106Z 2512/2618 06006KT CAVOK=

ZCZC
FC251600 EHLW     LEEUWARDEN/LEEUWARDEN   NLD   1 m.
TAF EHLW 251635Z 2517/2605 06010KT CAVOK=

ZCZC
FC251600 EHVK     VOLKEL/VOLKEL   NLD   21 m.
TAF EHVK 251636Z 2517/2605 06008KT CAVOK=

ZCZC
FC251600 EHKD     DE KOOY/DE KOOY   NLD   1 m.
TAF EHKD 251600Z NIL=

ZCZC
FC251600 EHGR     GILZE-RIJEN/GILZE-RIJEN   NLD   14 m.
TAF EHGR 251600Z NIL=

ZCZC
FC251600 EHWO     WOENSDRECHT/WOENSDRECHT   NLD   19 m.
TAF EHWO 251600Z NIL=

ZCZC
FT251700 EHLE     LELYSTAD/LELYSTAD   NLD   -3 m.
TAF EHLE 251708Z 2518/2624 05006KT CAVOK=

ZCZC
FT251700 EHAM     AMSTERDAM/SCHIPHOL   NLD   -3 m.
TAF EHAM 251708Z 2518/2624 05007KT CAVOK=

ZCZC
FT251700 EHRD     ROTTERDAM/THE HAGUE AIRPORT   NLD   -5 m.
TAF EHRD 251708Z 2518/2624 05006KT CAVOK=

ZCZC
FT251700 EHGG RRA GRONINGEN/EELDE   NLD   5 m.
TAF EHGG 251726Z 2518/2624 06008KT CAVOK=

ZCZC
FT251700 EHBK RRB MAASTRICHT/MAASTRICHT-AACHEN   NLD   114 m.
TAF EHBK 251726Z 2518/2624 06005KT CAVOK=

25/06/2024 19.30 uur LT